sensor_id;sensor_type;location;lat;lon;timestamp;temperature;humidity
210;DHT22;90;48.810;9.120;2022-12-18T00:00:49;-6.00;79.10
210;DHT22;90;48.810;9.120;2022-12-18T00:03:16;-6.10;78.80
210;DHT22;90;48.810;9.120;2022-12-18T00:05:47;-6.10;78.80
210;DHT22;90;48.810;9.120;2022-12-18T00:08:14;-6.20;78.80
210;DHT22;90;48.810;9.120;2022-12-18T00:10:41;-6.20;79.00
210;DHT22;90;48.810;9.120;2022-12-18T00:13:08;-6.30;79.20
210;DHT22;90;48.810;9.120;2022-12-18T00:15:35;-6.40;79.20
210;DHT22;90;48.810;9.120;2022-12-18T00:18:04;-6.40;79.40
210;DHT22;90;48.810;9.120;2022-12-18T00:20:35;-6.40;79.60
210;DHT22;90;48.810;9.120;2022-12-18T00:23:03;-6.50;79.80
210;DHT22;90;48.810;9.120;2022-12-18T00:25:29;-6.50;80.40
210;DHT22;90;48.810;9.120;2022-12-18T00:27:58;-6.50;80.10
210;DHT22;90;48.810;9.120;2022-12-18T00:30:25;-6.60;79.70
210;DHT22;90;48.810;9.120;2022-12-18T00:32:52;-6.50;79.30
210;DHT22;90;48.810;9.120;2022-12-18T00:35:21;-6.40;78.50
210;DHT22;90;48.810;9.120;2022-12-18T00:37:48;-6.40;78.40
210;DHT22;90;48.810;9.120;2022-12-18T00:40:15;-6.40;79.10
210;DHT22;90;48.810;9.120;2022-12-18T00:42:42;-6.40;79.40
210;DHT22;90;48.810;9.120;2022-12-18T00:45:25;-6.30;79.80
210;DHT22;90;48.810;9.120;2022-12-18T00:47:52;-6.30;79.60
210;DHT22;90;48.810;9.120;2022-12-18T00:50:21;-6.30;79.50
210;DHT22;90;48.810;9.120;2022-12-18T00:52:49;-6.30;79.60
210;DHT22;90;48.810;9.120;2022-12-18T00:55:16;-6.20;79.00
210;DHT22;90;48.810;9.120;2022-12-18T00:57:43;-6.40;78.00
210;DHT22;90;48.810;9.120;2022-12-18T01:00:12;-6.40;78.50
210;DHT22;90;48.810;9.120;2022-12-18T01:02:40;-6.50;77.80
210;DHT22;90;48.810;9.120;2022-12-18T01:05:09;-6.50;77.70
210;DHT22;90;48.810;9.120;2022-12-18T01:07:38;-6.60;77.80
210;DHT22;90;48.810;9.120;2022-12-18T01:10:07;-6.70;78.20
210;DHT22;90;48.810;9.120;2022-12-18T01:12:35;-6.70;78.80
210;DHT22;90;48.810;9.120;2022-12-18T01:15:03;-6.60;78.90
210;DHT22;90;48.810;9.120;2022-12-18T01:17:30;-6.50;78.80
210;DHT22;90;48.810;9.120;2022-12-18T01:19:57;-6.40;78.80
210;DHT22;90;48.810;9.120;2022-12-18T01:22:24;-6.50;79.30
210;DHT22;90;48.810;9.120;2022-12-18T01:24:52;-6.30;80.20
210;DHT22;90;48.810;9.120;2022-12-18T01:27:19;-6.20;80.50
210;DHT22;90;48.810;9.120;2022-12-18T01:29:46;-6.20;80.40
210;DHT22;90;48.810;9.120;2022-12-18T01:32:13;-6.10;80.80
210;DHT22;90;48.810;9.120;2022-12-18T01:34:40;-6.10;81.20
210;DHT22;90;48.810;9.120;2022-12-18T01:37:07;-6.00;81.60
210;DHT22;90;48.810;9.120;2022-12-18T01:39:34;-6.00;82.10
210;DHT22;90;48.810;9.120;2022-12-18T01:42:03;-5.90;82.10
210;DHT22;90;48.810;9.120;2022-12-18T01:45:04;-5.90;81.90
210;DHT22;90;48.810;9.120;2022-12-18T01:47:38;-5.80;81.50
210;DHT22;90;48.810;9.120;2022-12-18T01:50:08;-5.90;81.20
210;DHT22;90;48.810;9.120;2022-12-18T01:52:40;-5.90;81.20
210;DHT22;90;48.810;9.120;2022-12-18T01:55:08;-5.90;80.70
210;DHT22;90;48.810;9.120;2022-12-18T01:57:38;-5.90;80.80
210;DHT22;90;48.810;9.120;2022-12-18T02:00:08;-5.90;80.70
210;DHT22;90;48.810;9.120;2022-12-18T02:02:36;-5.90;80.80
210;DHT22;90;48.810;9.120;2022-12-18T02:05:04;-6.00;81.10
210;DHT22;90;48.810;9.120;2022-12-18T02:07:37;-6.00;81.10
210;DHT22;90;48.810;9.120;2022-12-18T02:10:13;-6.00;81.60
210;DHT22;90;48.810;9.120;2022-12-18T02:12:48;-6.00;81.80
210;DHT22;90;48.810;9.120;2022-12-18T02:15:21;-6.00;82.30
210;DHT22;90;48.810;9.120;2022-12-18T02:17:55;-5.90;82.40
210;DHT22;90;48.810;9.120;2022-12-18T02:20:30;-6.00;82.30
210;DHT22;90;48.810;9.120;2022-12-18T02:23:06;-6.00;82.80
210;DHT22;90;48.810;9.120;2022-12-18T02:25:51;-5.90;83.20
210;DHT22;90;48.810;9.120;2022-12-18T02:28:21;-5.80;83.00
210;DHT22;90;48.810;9.120;2022-12-18T02:30:51;-6.00;82.80
210;DHT22;90;48.810;9.120;2022-12-18T02:33:21;-6.00;83.10
210;DHT22;90;48.810;9.120;2022-12-18T02:35:51;-5.90;83.30
210;DHT22;90;48.810;9.120;2022-12-18T02:38:21;-5.90;83.30
210;DHT22;90;48.810;9.120;2022-12-18T02:40:49;-5.80;83.40
210;DHT22;90;48.810;9.120;2022-12-18T02:43:17;-5.80;82.90
210;DHT22;90;48.810;9.120;2022-12-18T02:45:49;-5.90;82.80
210;DHT22;90;48.810;9.120;2022-12-18T02:48:18;-5.90;82.90
210;DHT22;90;48.810;9.120;2022-12-18T02:50:54;-5.90;82.60
210;DHT22;90;48.810;9.120;2022-12-18T02:53:30;-5.90;82.40
210;DHT22;90;48.810;9.120;2022-12-18T02:56:05;-6.00;82.30
210;DHT22;90;48.810;9.120;2022-12-18T02:58:42;-5.90;82.50
210;DHT22;90;48.810;9.120;2022-12-18T03:01:16;-5.90;82.00
210;DHT22;90;48.810;9.120;2022-12-18T03:03:50;-6.00;82.20
210;DHT22;90;48.810;9.120;2022-12-18T03:06:23;-6.00;82.30
210;DHT22;90;48.810;9.120;2022-12-18T03:08:56;-6.00;82.20
210;DHT22;90;48.810;9.120;2022-12-18T03:11:24;-6.10;82.10
210;DHT22;90;48.810;9.120;2022-12-18T03:14:08;-6.20;82.40
210;DHT22;90;48.810;9.120;2022-12-18T03:16:36;-6.30;82.70
210;DHT22;90;48.810;9.120;2022-12-18T03:19:07;-6.30;83.10
210;DHT22;90;48.810;9.120;2022-12-18T03:21:38;-6.40;83.50
210;DHT22;90;48.810;9.120;2022-12-18T03:24:07;-6.40;83.80
210;DHT22;90;48.810;9.120;2022-12-18T03:26:35;-6.40;83.90
210;DHT22;90;48.810;9.120;2022-12-18T03:29:09;-6.40;83.90
210;DHT22;90;48.810;9.120;2022-12-18T03:31:40;-6.20;83.60
210;DHT22;90;48.810;9.120;2022-12-18T03:34:14;-6.30;82.70
210;DHT22;90;48.810;9.120;2022-12-18T03:36:42;-6.40;82.10
210;DHT22;90;48.810;9.120;2022-12-18T03:39:10;-6.40;81.70
210;DHT22;90;48.810;9.120;2022-12-18T03:41:43;-6.50;81.30
210;DHT22;90;48.810;9.120;2022-12-18T03:44:14;-6.60;80.80
210;DHT22;90;48.810;9.120;2022-12-18T03:46:51;-6.60;80.70
210;DHT22;90;48.810;9.120;2022-12-18T03:49:25;-6.60;80.40
210;DHT22;90;48.810;9.120;2022-12-18T03:52:01;-6.60;80.40
210;DHT22;90;48.810;9.120;2022-12-18T03:54:29;-6.70;80.70
210;DHT22;90;48.810;9.120;2022-12-18T03:57:00;-6.80;81.00
210;DHT22;90;48.810;9.120;2022-12-18T03:59:30;-6.70;81.10
210;DHT22;90;48.810;9.120;2022-12-18T04:01:59;-6.70;81.00
210;DHT22;90;48.810;9.120;2022-12-18T04:04:29;-6.70;80.70
210;DHT22;90;48.810;9.120;2022-12-18T04:06:57;-6.70;80.50
210;DHT22;90;48.810;9.120;2022-12-18T04:09:25;-6.70;80.30
210;DHT22;90;48.810;9.120;2022-12-18T04:11:53;-6.80;80.10
210;DHT22;90;48.810;9.120;2022-12-18T04:14:19;-6.80;80.30
210;DHT22;90;48.810;9.120;2022-12-18T04:16:48;-6.80;80.50
210;DHT22;90;48.810;9.120;2022-12-18T04:19:15;-6.80;80.50
210;DHT22;90;48.810;9.120;2022-12-18T04:21:42;-6.90;81.00
210;DHT22;90;48.810;9.120;2022-12-18T04:24:09;-6.80;81.50
210;DHT22;90;48.810;9.120;2022-12-18T04:26:36;-6.70;81.40
210;DHT22;90;48.810;9.120;2022-12-18T04:29:03;-6.70;81.50
210;DHT22;90;48.810;9.120;2022-12-18T04:31:30;-6.70;81.40
210;DHT22;90;48.810;9.120;2022-12-18T04:33:59;-6.70;81.80
210;DHT22;90;48.810;9.120;2022-12-18T04:36:26;-6.60;81.80
210;DHT22;90;48.810;9.120;2022-12-18T04:38:53;-6.60;81.40
210;DHT22;90;48.810;9.120;2022-12-18T04:41:19;-6.60;81.30
210;DHT22;90;48.810;9.120;2022-12-18T04:43:46;-6.40;81.30
210;DHT22;90;48.810;9.120;2022-12-18T04:46:13;-6.50;81.20
210;DHT22;90;48.810;9.120;2022-12-18T04:48:40;-6.30;81.30
210;DHT22;90;48.810;9.120;2022-12-18T04:51:09;-6.40;80.90
210;DHT22;90;48.810;9.120;2022-12-18T04:53:35;-6.40;81.00
210;DHT22;90;48.810;9.120;2022-12-18T04:56:04;-6.50;81.10
210;DHT22;90;48.810;9.120;2022-12-18T04:58:32;-6.60;81.20
210;DHT22;90;48.810;9.120;2022-12-18T05:00:59;-6.60;81.50
210;DHT22;90;48.810;9.120;2022-12-18T05:03:27;-6.60;81.70
210;DHT22;90;48.810;9.120;2022-12-18T05:05:54;-6.70;81.70
210;DHT22;90;48.810;9.120;2022-12-18T05:08:22;-6.70;82.20
210;DHT22;90;48.810;9.120;2022-12-18T05:10:49;-6.60;82.10
210;DHT22;90;48.810;9.120;2022-12-18T05:13:16;-6.60;82.00
210;DHT22;90;48.810;9.120;2022-12-18T05:15:43;-6.60;81.80
210;DHT22;90;48.810;9.120;2022-12-18T05:18:17;-6.60;81.40
210;DHT22;90;48.810;9.120;2022-12-18T05:20:44;-6.60;81.40
210;DHT22;90;48.810;9.120;2022-12-18T05:23:11;-6.60;81.30
210;DHT22;90;48.810;9.120;2022-12-18T05:25:40;-6.60;81.70
210;DHT22;90;48.810;9.120;2022-12-18T05:28:07;-6.50;81.50
210;DHT22;90;48.810;9.120;2022-12-18T05:30:34;-6.60;81.10
210;DHT22;90;48.810;9.120;2022-12-18T05:33:01;-6.60;81.30
210;DHT22;90;48.810;9.120;2022-12-18T05:35:28;-6.50;81.30
210;DHT22;90;48.810;9.120;2022-12-18T05:37:54;-6.50;81.20
210;DHT22;90;48.810;9.120;2022-12-18T05:40:22;-6.50;81.00
210;DHT22;90;48.810;9.120;2022-12-18T05:42:50;-6.50;81.00
210;DHT22;90;48.810;9.120;2022-12-18T05:45:17;-6.50;81.00
210;DHT22;90;48.810;9.120;2022-12-18T05:47:44;-6.60;80.60
210;DHT22;90;48.810;9.120;2022-12-18T05:50:11;-6.60;80.80
210;DHT22;90;48.810;9.120;2022-12-18T05:52:38;-6.60;80.60
210;DHT22;90;48.810;9.120;2022-12-18T05:55:05;-6.60;80.70
210;DHT22;90;48.810;9.120;2022-12-18T05:57:32;-6.60;80.50
210;DHT22;90;48.810;9.120;2022-12-18T06:00:01;-6.60;80.20
210;DHT22;90;48.810;9.120;2022-12-18T06:02:28;-6.60;80.10
210;DHT22;90;48.810;9.120;2022-12-18T06:04:55;-6.70;80.10
210;DHT22;90;48.810;9.120;2022-12-18T06:07:22;-6.80;80.20
210;DHT22;90;48.810;9.120;2022-12-18T06:09:49;-6.80;80.50
210;DHT22;90;48.810;9.120;2022-12-18T06:12:15;-6.80;80.40
210;DHT22;90;48.810;9.120;2022-12-18T06:14:42;-6.80;80.50
210;DHT22;90;48.810;9.120;2022-12-18T06:17:11;-6.80;80.50
210;DHT22;90;48.810;9.120;2022-12-18T06:19:38;-6.80;80.40
210;DHT22;90;48.810;9.120;2022-12-18T06:22:05;-6.70;80.10
210;DHT22;90;48.810;9.120;2022-12-18T06:24:32;-6.90;79.70
210;DHT22;90;48.810;9.120;2022-12-18T06:26:59;-6.90;80.00
210;DHT22;90;48.810;9.120;2022-12-18T06:29:26;-6.80;79.90
210;DHT22;90;48.810;9.120;2022-12-18T06:31:53;-6.80;79.70
210;DHT22;90;48.810;9.120;2022-12-18T06:34:21;-6.90;79.50
210;DHT22;90;48.810;9.120;2022-12-18T06:36:48;-7.00;79.10
210;DHT22;90;48.810;9.120;2022-12-18T06:39:15;-7.00;79.00
210;DHT22;90;48.810;9.120;2022-12-18T06:41:42;-7.00;79.50
210;DHT22;90;48.810;9.120;2022-12-18T06:44:09;-7.00;79.60
210;DHT22;90;48.810;9.120;2022-12-18T06:46:36;-7.00;79.70
210;DHT22;90;48.810;9.120;2022-12-18T06:49:03;-7.00;80.20
210;DHT22;90;48.810;9.120;2022-12-18T06:51:31;-7.00;80.60
210;DHT22;90;48.810;9.120;2022-12-18T06:53:58;-6.90;80.50
210;DHT22;90;48.810;9.120;2022-12-18T06:56:25;-6.90;80.50
210;DHT22;90;48.810;9.120;2022-12-18T06:58:53;-6.90;80.60
210;DHT22;90;48.810;9.120;2022-12-18T07:01:21;-6.90;80.70
210;DHT22;90;48.810;9.120;2022-12-18T07:03:52;-6.90;81.30
210;DHT22;90;48.810;9.120;2022-12-18T07:06:21;-6.80;81.30
210;DHT22;90;48.810;9.120;2022-12-18T07:08:50;-6.70;80.70
210;DHT22;90;48.810;9.120;2022-12-18T07:11:18;-6.60;80.20
210;DHT22;90;48.810;9.120;2022-12-18T07:13:46;-6.60;79.60
210;DHT22;90;48.810;9.120;2022-12-18T07:16:14;-6.60;79.40
210;DHT22;90;48.810;9.120;2022-12-18T07:18:42;-5.50;89.60
210;DHT22;90;48.810;9.120;2022-12-18T07:21:11;-5.00;96.80
210;DHT22;90;48.810;9.120;2022-12-18T07:23:38;-5.10;96.80
210;DHT22;90;48.810;9.120;2022-12-18T07:26:09;-5.20;96.80
210;DHT22;90;48.810;9.120;2022-12-18T07:28:37;-5.10;96.80
210;DHT22;90;48.810;9.120;2022-12-18T07:31:04;-5.30;96.80
210;DHT22;90;48.810;9.120;2022-12-18T07:33:32;-5.50;96.80
210;DHT22;90;48.810;9.120;2022-12-18T07:35:59;-5.80;96.10
210;DHT22;90;48.810;9.120;2022-12-18T07:38:27;-6.00;94.30
210;DHT22;90;48.810;9.120;2022-12-18T07:40:53;-6.20;91.30
210;DHT22;90;48.810;9.120;2022-12-18T07:43:22;-6.20;90.80
210;DHT22;90;48.810;9.120;2022-12-18T07:45:49;-6.20;89.60
210;DHT22;90;48.810;9.120;2022-12-18T07:48:16;-6.30;87.70
210;DHT22;90;48.810;9.120;2022-12-18T07:50:43;-6.30;86.80
210;DHT22;90;48.810;9.120;2022-12-18T07:53:10;-6.30;86.10
210;DHT22;90;48.810;9.120;2022-12-18T07:55:39;-6.30;85.60
210;DHT22;90;48.810;9.120;2022-12-18T07:58:18;-6.20;85.20
210;DHT22;90;48.810;9.120;2022-12-18T08:00:47;-6.20;84.10
210;DHT22;90;48.810;9.120;2022-12-18T08:03:14;-6.10;83.80
210;DHT22;90;48.810;9.120;2022-12-18T08:05:41;-6.10;83.60
210;DHT22;90;48.810;9.120;2022-12-18T08:08:08;-6.00;83.30
210;DHT22;90;48.810;9.120;2022-12-18T08:10:35;-6.00;83.30
210;DHT22;90;48.810;9.120;2022-12-18T08:13:02;-5.90;83.20
210;DHT22;90;48.810;9.120;2022-12-18T08:15:29;-5.90;83.20
210;DHT22;90;48.810;9.120;2022-12-18T08:17:57;-5.80;83.30
210;DHT22;90;48.810;9.120;2022-12-18T08:20:24;-5.80;83.20
210;DHT22;90;48.810;9.120;2022-12-18T08:22:51;-5.80;83.10
210;DHT22;90;48.810;9.120;2022-12-18T08:25:23;-5.80;83.00
210;DHT22;90;48.810;9.120;2022-12-18T08:27:59;-5.80;83.60
210;DHT22;90;48.810;9.120;2022-12-18T08:30:26;-5.80;83.80
210;DHT22;90;48.810;9.120;2022-12-18T08:32:53;-5.70;84.00
210;DHT22;90;48.810;9.120;2022-12-18T08:35:22;-5.80;83.80
210;DHT22;90;48.810;9.120;2022-12-18T08:37:48;-5.80;84.20
210;DHT22;90;48.810;9.120;2022-12-18T08:40:15;-5.60;84.30
210;DHT22;90;48.810;9.120;2022-12-18T08:42:42;-5.70;84.00
210;DHT22;90;48.810;9.120;2022-12-18T08:45:27;-5.80;84.40
210;DHT22;90;48.810;9.120;2022-12-18T08:47:54;-5.80;84.60
210;DHT22;90;48.810;9.120;2022-12-18T08:50:23;-5.70;84.90
210;DHT22;90;48.810;9.120;2022-12-18T08:52:50;-5.70;84.50
210;DHT22;90;48.810;9.120;2022-12-18T08:55:17;-5.60;84.40
210;DHT22;90;48.810;9.120;2022-12-18T08:57:48;-5.50;84.30
210;DHT22;90;48.810;9.120;2022-12-18T09:00:15;-5.40;83.90
210;DHT22;90;48.810;9.120;2022-12-18T09:02:42;-5.30;83.90
210;DHT22;90;48.810;9.120;2022-12-18T09:05:09;-5.30;83.60
210;DHT22;90;48.810;9.120;2022-12-18T09:07:38;-5.20;83.70
210;DHT22;90;48.810;9.120;2022-12-18T09:10:06;-5.20;83.60
210;DHT22;90;48.810;9.120;2022-12-18T09:12:33;-5.20;83.70
210;DHT22;90;48.810;9.120;2022-12-18T09:15:08;-5.10;84.10
210;DHT22;90;48.810;9.120;2022-12-18T09:17:36;-5.10;83.90
210;DHT22;90;48.810;9.120;2022-12-18T09:20:03;-5.10;84.00
210;DHT22;90;48.810;9.120;2022-12-18T09:22:30;-5.10;84.40
210;DHT22;90;48.810;9.120;2022-12-18T09:24:59;-5.10;84.60
210;DHT22;90;48.810;9.120;2022-12-18T09:27:26;-5.10;84.60
210;DHT22;90;48.810;9.120;2022-12-18T09:29:52;-5.10;84.70
210;DHT22;90;48.810;9.120;2022-12-18T09:32:19;-5.10;84.80
210;DHT22;90;48.810;9.120;2022-12-18T09:34:46;-5.20;85.00
210;DHT22;90;48.810;9.120;2022-12-18T09:37:13;-5.00;85.10
210;DHT22;90;48.810;9.120;2022-12-18T09:39:41;-4.90;84.70
210;DHT22;90;48.810;9.120;2022-12-18T09:42:16;-4.70;84.40
210;DHT22;90;48.810;9.120;2022-12-18T09:44:49;-4.70;84.00
210;DHT22;90;48.810;9.120;2022-12-18T09:47:19;-4.60;83.70
210;DHT22;90;48.810;9.120;2022-12-18T09:49:50;-4.70;83.80
210;DHT22;90;48.810;9.120;2022-12-18T09:52:23;-4.70;84.10
210;DHT22;90;48.810;9.120;2022-12-18T09:54:55;-4.60;84.40
210;DHT22;90;48.810;9.120;2022-12-18T09:57:25;-4.50;84.20
210;DHT22;90;48.810;9.120;2022-12-18T09:59:55;-4.40;84.40
210;DHT22;90;48.810;9.120;2022-12-18T10:02:25;-4.30;84.50
210;DHT22;90;48.810;9.120;2022-12-18T10:05:03;-4.20;84.20
210;DHT22;90;48.810;9.120;2022-12-18T10:07:40;-4.30;83.90
210;DHT22;90;48.810;9.120;2022-12-18T10:10:16;-4.20;84.40
210;DHT22;90;48.810;9.120;2022-12-18T10:12:53;-4.10;84.60
210;DHT22;90;48.810;9.120;2022-12-18T10:15:27;-4.00;84.10
210;DHT22;90;48.810;9.120;2022-12-18T10:18:01;-4.00;83.80
210;DHT22;90;48.810;9.120;2022-12-18T10:20:36;-3.90;84.00
210;DHT22;90;48.810;9.120;2022-12-18T10:23:14;-3.80;83.90
210;DHT22;90;48.810;9.120;2022-12-18T10:25:50;-3.60;83.40
210;DHT22;90;48.810;9.120;2022-12-18T10:28:22;-3.50;83.30
210;DHT22;90;48.810;9.120;2022-12-18T10:30:50;-3.30;83.00
210;DHT22;90;48.810;9.120;2022-12-18T10:33:18;-3.10;82.60
210;DHT22;90;48.810;9.120;2022-12-18T10:35:47;-3.00;82.00
210;DHT22;90;48.810;9.120;2022-12-18T10:38:24;-2.00;96.80
210;DHT22;90;48.810;9.120;2022-12-18T10:40:53;-1.80;94.00
210;DHT22;90;48.810;9.120;2022-12-18T10:43:25;-1.90;85.00
210;DHT22;90;48.810;9.120;2022-12-18T10:46:12;-2.00;83.00
210;DHT22;90;48.810;9.120;2022-12-18T10:48:49;-2.00;81.80
210;DHT22;90;48.810;9.120;2022-12-18T10:51:21;-2.10;81.00
210;DHT22;90;48.810;9.120;2022-12-18T10:53:53;-2.10;81.20
210;DHT22;90;48.810;9.120;2022-12-18T10:56:22;-2.00;81.00
210;DHT22;90;48.810;9.120;2022-12-18T10:58:58;-2.00;80.80
210;DHT22;90;48.810;9.120;2022-12-18T11:01:26;-2.00;80.70
210;DHT22;90;48.810;9.120;2022-12-18T11:04:02;-1.90;80.50
210;DHT22;90;48.810;9.120;2022-12-18T11:06:32;-1.90;80.60
210;DHT22;90;48.810;9.120;2022-12-18T11:09:01;-1.10;92.20
210;DHT22;90;48.810;9.120;2022-12-18T11:11:29;-0.60;96.80
210;DHT22;90;48.810;9.120;2022-12-18T11:14:02;1.80;96.80
210;DHT22;90;48.810;9.120;2022-12-18T11:16:33;4.90;96.80
210;DHT22;90;48.810;9.120;2022-12-18T11:19:17;5.40;96.80
210;DHT22;90;48.810;9.120;2022-12-18T11:21:47;4.50;95.50
210;DHT22;90;48.810;9.120;2022-12-18T11:24:27;3.40;83.80
210;DHT22;90;48.810;9.120;2022-12-18T11:26:55;2.30;78.60
210;DHT22;90;48.810;9.120;2022-12-18T11:29:30;1.60;79.30
210;DHT22;90;48.810;9.120;2022-12-18T11:32:33;1.20;77.90
210;DHT22;90;48.810;9.120;2022-12-18T11:35:09;0.80;76.70
210;DHT22;90;48.810;9.120;2022-12-18T11:37:36;0.60;76.10
210;DHT22;90;48.810;9.120;2022-12-18T11:40:11;0.30;74.60
210;DHT22;90;48.810;9.120;2022-12-18T11:42:45;0.20;75.30
210;DHT22;90;48.810;9.120;2022-12-18T11:45:26;0.00;75.20
210;DHT22;90;48.810;9.120;2022-12-18T11:47:58;-0.10;75.30
210;DHT22;90;48.810;9.120;2022-12-18T11:50:30;-0.20;75.60
210;DHT22;90;48.810;9.120;2022-12-18T11:52:58;-0.40;75.50
210;DHT22;90;48.810;9.120;2022-12-18T11:55:32;-0.50;76.00
210;DHT22;90;48.810;9.120;2022-12-18T11:58:07;-0.50;76.20
210;DHT22;90;48.810;9.120;2022-12-18T12:00:42;-0.40;76.40
210;DHT22;90;48.810;9.120;2022-12-18T12:03:39;-0.40;75.90
210;DHT22;90;48.810;9.120;2022-12-18T12:06:17;-0.40;76.10
210;DHT22;90;48.810;9.120;2022-12-18T12:09:00;-0.60;76.70
210;DHT22;90;48.810;9.120;2022-12-18T12:11:36;-0.70;77.00
210;DHT22;90;48.810;9.120;2022-12-18T12:14:34;-0.50;86.00
210;DHT22;90;48.810;9.120;2022-12-18T12:17:12;0.20;90.90
210;DHT22;90;48.810;9.120;2022-12-18T12:19:48;-0.10;78.40
210;DHT22;90;48.810;9.120;2022-12-18T12:22:24;-0.30;76.50
210;DHT22;90;48.810;9.120;2022-12-18T12:25:14;-0.40;76.80
210;DHT22;90;48.810;9.120;2022-12-18T12:27:50;-0.50;76.90
210;DHT22;90;48.810;9.120;2022-12-18T12:30:20;-0.60;77.00
210;DHT22;90;48.810;9.120;2022-12-18T12:33:03;-0.50;77.10
210;DHT22;90;48.810;9.120;2022-12-18T12:35:42;-0.60;77.00
210;DHT22;90;48.810;9.120;2022-12-18T12:38:13;-0.60;77.10
210;DHT22;90;48.810;9.120;2022-12-18T12:40:46;-0.60;77.20
210;DHT22;90;48.810;9.120;2022-12-18T12:43:33;-0.60;77.40
210;DHT22;90;48.810;9.120;2022-12-18T12:46:05;-0.60;77.60
210;DHT22;90;48.810;9.120;2022-12-18T12:48:41;-0.60;77.50
210;DHT22;90;48.810;9.120;2022-12-18T12:51:14;-0.60;77.50
210;DHT22;90;48.810;9.120;2022-12-18T12:53:42;-0.70;77.70
210;DHT22;90;48.810;9.120;2022-12-18T12:56:11;-0.10;90.40
210;DHT22;90;48.810;9.120;2022-12-18T12:58:46;-0.10;81.90
210;DHT22;90;48.810;9.120;2022-12-18T13:01:25;-0.20;77.60
210;DHT22;90;48.810;9.120;2022-12-18T13:04:02;-0.40;76.80
210;DHT22;90;48.810;9.120;2022-12-18T13:06:38;-0.40;76.70
210;DHT22;90;48.810;9.120;2022-12-18T13:09:06;-0.50;77.30
210;DHT22;90;48.810;9.120;2022-12-18T13:11:38;-0.60;77.00
210;DHT22;90;48.810;9.120;2022-12-18T13:14:27;-0.60;77.10
210;DHT22;90;48.810;9.120;2022-12-18T13:20:10;-0.70;77.70
210;DHT22;90;48.810;9.120;2022-12-18T13:22:41;-0.70;77.60
210;DHT22;90;48.810;9.120;2022-12-18T13:25:33;-0.70;77.60
210;DHT22;90;48.810;9.120;2022-12-18T13:28:11;-0.70;77.60
210;DHT22;90;48.810;9.120;2022-12-18T13:30:51;-0.70;77.30
210;DHT22;90;48.810;9.120;2022-12-18T13:33:48;-0.70;77.70
210;DHT22;90;48.810;9.120;2022-12-18T13:36:27;-0.70;77.70
210;DHT22;90;48.810;9.120;2022-12-18T13:39:23;-0.70;77.80
210;DHT22;90;48.810;9.120;2022-12-18T13:41:52;-0.60;77.60
210;DHT22;90;48.810;9.120;2022-12-18T13:44:31;-0.60;77.20
210;DHT22;90;48.810;9.120;2022-12-18T13:46:59;-0.70;77.20
210;DHT22;90;48.810;9.120;2022-12-18T13:49:31;-0.70;77.30
210;DHT22;90;48.810;9.120;2022-12-18T13:52:16;-0.70;77.30
210;DHT22;90;48.810;9.120;2022-12-18T13:54:47;-0.70;77.10
210;DHT22;90;48.810;9.120;2022-12-18T13:57:26;-0.70;77.20
210;DHT22;90;48.810;9.120;2022-12-18T13:59:55;-0.70;77.60
210;DHT22;90;48.810;9.120;2022-12-18T14:02:23;-0.70;77.60
210;DHT22;90;48.810;9.120;2022-12-18T14:04:51;-0.70;77.60
210;DHT22;90;48.810;9.120;2022-12-18T14:07:22;-0.70;77.60
210;DHT22;90;48.810;9.120;2022-12-18T14:09:52;-0.80;77.60
210;DHT22;90;48.810;9.120;2022-12-18T14:12:23;-0.80;77.70
210;DHT22;90;48.810;9.120;2022-12-18T14:15:20;-0.90;78.00
210;DHT22;90;48.810;9.120;2022-12-18T14:17:50;-0.90;78.10
210;DHT22;90;48.810;9.120;2022-12-18T14:20:17;-0.90;78.10
210;DHT22;90;48.810;9.120;2022-12-18T14:22:47;-1.00;78.30
210;DHT22;90;48.810;9.120;2022-12-18T14:25:18;-1.00;78.50
210;DHT22;90;48.810;9.120;2022-12-18T14:27:47;-1.10;78.60
210;DHT22;90;48.810;9.120;2022-12-18T14:30:33;-1.10;78.90
210;DHT22;90;48.810;9.120;2022-12-18T14:33:08;-1.10;79.30
210;DHT22;90;48.810;9.120;2022-12-18T14:35:37;-1.10;79.50
210;DHT22;90;48.810;9.120;2022-12-18T14:38:20;-1.20;79.60
210;DHT22;90;48.810;9.120;2022-12-18T14:40:47;-1.20;79.80
210;DHT22;90;48.810;9.120;2022-12-18T14:43:18;-1.30;80.10
210;DHT22;90;48.810;9.120;2022-12-18T14:45:45;-1.30;80.40
210;DHT22;90;48.810;9.120;2022-12-18T14:48:16;-1.30;80.50
210;DHT22;90;48.810;9.120;2022-12-18T14:50:44;-1.40;80.80
210;DHT22;90;48.810;9.120;2022-12-18T14:53:29;-1.40;81.10
210;DHT22;90;48.810;9.120;2022-12-18T14:55:58;-1.50;81.30
210;DHT22;90;48.810;9.120;2022-12-18T14:58:25;-1.50;81.50
210;DHT22;90;48.810;9.120;2022-12-18T15:00:52;-1.50;81.70
210;DHT22;90;48.810;9.120;2022-12-18T15:03:20;-1.60;81.80
210;DHT22;90;48.810;9.120;2022-12-18T15:05:47;-1.60;81.90
210;DHT22;90;48.810;9.120;2022-12-18T15:08:29;-1.60;82.00
210;DHT22;90;48.810;9.120;2022-12-18T15:10:56;-1.70;82.20
210;DHT22;90;48.810;9.120;2022-12-18T15:13:24;-1.70;82.20
210;DHT22;90;48.810;9.120;2022-12-18T15:15:52;-1.70;82.40
210;DHT22;90;48.810;9.120;2022-12-18T15:18:21;-1.70;82.60
210;DHT22;90;48.810;9.120;2022-12-18T15:20:49;-1.80;82.70
210;DHT22;90;48.810;9.120;2022-12-18T15:23:19;-1.80;82.90
210;DHT22;90;48.810;9.120;2022-12-18T15:25:53;-1.90;83.60
210;DHT22;90;48.810;9.120;2022-12-18T15:28:23;-1.90;84.00
210;DHT22;90;48.810;9.120;2022-12-18T15:31:02;-1.90;84.10
210;DHT22;90;48.810;9.120;2022-12-18T15:33:32;-2.00;84.10
210;DHT22;90;48.810;9.120;2022-12-18T15:36:01;-2.00;84.20
210;DHT22;90;48.810;9.120;2022-12-18T15:38:28;-2.00;84.30
210;DHT22;90;48.810;9.120;2022-12-18T15:40:57;-2.10;84.40
210;DHT22;90;48.810;9.120;2022-12-18T15:43:25;-2.10;84.60
210;DHT22;90;48.810;9.120;2022-12-18T15:46:00;-2.10;84.70
210;DHT22;90;48.810;9.120;2022-12-18T15:48:27;-2.10;84.70
210;DHT22;90;48.810;9.120;2022-12-18T15:50:56;-2.10;84.80
210;DHT22;90;48.810;9.120;2022-12-18T15:53:24;-2.10;84.80
210;DHT22;90;48.810;9.120;2022-12-18T15:55:52;-2.10;84.70
210;DHT22;90;48.810;9.120;2022-12-18T15:58:37;-2.20;84.60
210;DHT22;90;48.810;9.120;2022-12-18T16:01:05;-2.20;84.70
210;DHT22;90;48.810;9.120;2022-12-18T16:03:31;-2.20;84.70
210;DHT22;90;48.810;9.120;2022-12-18T16:05:59;-2.30;84.70
210;DHT22;90;48.810;9.120;2022-12-18T16:08:27;-2.30;85.00
210;DHT22;90;48.810;9.120;2022-12-18T16:10:55;-2.40;85.10
210;DHT22;90;48.810;9.120;2022-12-18T16:13:22;-2.30;85.20
210;DHT22;90;48.810;9.120;2022-12-18T16:15:51;-2.40;85.20
210;DHT22;90;48.810;9.120;2022-12-18T16:18:17;-2.40;85.30
210;DHT22;90;48.810;9.120;2022-12-18T16:20:44;-2.40;85.40
210;DHT22;90;48.810;9.120;2022-12-18T16:23:11;-2.50;85.60
210;DHT22;90;48.810;9.120;2022-12-18T16:25:38;-2.50;85.80
210;DHT22;90;48.810;9.120;2022-12-18T16:28:05;-2.50;85.90
210;DHT22;90;48.810;9.120;2022-12-18T16:30:32;-2.50;85.90
210;DHT22;90;48.810;9.120;2022-12-18T16:33:00;-2.50;85.90
210;DHT22;90;48.810;9.120;2022-12-18T16:35:28;-2.50;86.00
210;DHT22;90;48.810;9.120;2022-12-18T16:37:55;-2.50;86.20
210;DHT22;90;48.810;9.120;2022-12-18T16:40:22;-2.50;86.20
210;DHT22;90;48.810;9.120;2022-12-18T16:42:49;-2.60;86.30
210;DHT22;90;48.810;9.120;2022-12-18T16:45:17;-2.60;86.50
210;DHT22;90;48.810;9.120;2022-12-18T16:47:44;-2.60;86.60
210;DHT22;90;48.810;9.120;2022-12-18T16:50:13;-2.60;86.60
210;DHT22;90;48.810;9.120;2022-12-18T16:52:40;-2.60;86.80
210;DHT22;90;48.810;9.120;2022-12-18T16:55:08;-2.60;86.70
210;DHT22;90;48.810;9.120;2022-12-18T16:57:35;-2.60;86.70
210;DHT22;90;48.810;9.120;2022-12-18T17:00:03;-2.30;93.10
210;DHT22;90;48.810;9.120;2022-12-18T17:02:30;-2.30;90.60
210;DHT22;90;48.810;9.120;2022-12-18T17:04:58;-2.30;87.40
210;DHT22;90;48.810;9.120;2022-12-18T17:07:26;-2.40;87.00
210;DHT22;90;48.810;9.120;2022-12-18T17:09:54;-2.40;86.60
210;DHT22;90;48.810;9.120;2022-12-18T17:12:22;-2.50;86.50
210;DHT22;90;48.810;9.120;2022-12-18T17:14:49;-2.60;86.60
210;DHT22;90;48.810;9.120;2022-12-18T17:17:16;-2.60;86.90